Time;durP1;ratioP1;P1;durP2;ratioP2;P2;SDS_P1;SDS_P2;PMS_P1;PMS_P2;Temp;Humidity;BMP_temperature;BMP_pressure;BME280_temperature;BME280_humidity;BME280_pressure;Samples;Min_cycle;Max_cycle;Signal;HPM_P1;HPM_P2
2024/03/24 00:00:40;;;;;;;17.30;11.00;;;;;;;7.50;61.68;100024.40;107530;1251;110157;-62
2024/03/24 00:03:27;;;;;;;19.50;10.60;;;;;;;7.47;61.70;100019.32;107544;1256;99304;-64
2024/03/24 00:05:56;;;;;;;22.40;12.00;;;;;;;7.43;61.70;100013.05;107577;1253;99102;-64
2024/03/24 00:08:24;;;;;;;22.10;12.00;;;;;;;7.41;61.57;100013.40;107609;1251;112791;-64
2024/03/24 00:10:52;;;;;;;30.60;11.90;;;;;;;7.38;61.87;100009.92;107580;1251;108479;-64
2024/03/24 00:13:20;;;;;;;19.40;12.40;;;;;;;7.34;61.93;100002.19;107580;1252;108113;-63
2024/03/24 00:15:49;;;;;;;29.80;12.10;;;;;;;7.31;62.20;99998.38;107452;1253;99456;-63
2024/03/24 00:18:17;;;;;;;19.80;11.70;;;;;;;7.29;62.27;99998.77;107616;1253;99681;-66
2024/03/24 00:20:45;;;;;;;24.70;11.10;;;;;;;7.26;62.37;99994.38;107454;1254;113577;-65
2024/03/24 00:23:13;;;;;;;25.00;11.90;;;;;;;7.23;62.62;99991.05;107571;1251;107681;-67
2024/03/24 00:25:41;;;;;;;18.10;11.80;;;;;;;7.20;62.62;99989.83;107548;1255;108154;-65
2024/03/24 00:28:09;;;;;;;15.90;10.40;;;;;;;7.18;62.36;99990.23;107496;1251;99145;-65
2024/03/24 00:30:38;;;;;;;18.80;11.80;;;;;;;7.15;62.65;99988.20;107613;1253;99066;-63
2024/03/24 00:33:08;;;;;;;17.50;10.70;;;;;;;7.11;62.84;99982.31;107596;1251;112817;-64
2024/03/24 00:35:36;;;;;;;16.30;11.20;;;;;;;7.07;62.88;99978.89;107570;1255;106916;-63
2024/03/24 00:38:05;;;;;;;17.50;11.00;;;;;;;7.04;62.82;99983.17;107536;1253;108494;-67
2024/03/24 00:40:33;;;;;;;19.60;11.00;;;;;;;7.02;63.09;99974.67;107526;1252;99083;-66
2024/03/24 00:43:02;;;;;;;21.50;11.50;;;;;;;6.99;62.97;99973.53;107549;1252;99815;-65
2024/03/24 00:45:30;;;;;;;21.50;12.00;;;;;;;6.96;63.03;99971.79;107595;1254;113543;-65
2024/03/24 00:47:58;;;;;;;19.20;10.90;;;;;;;6.92;63.31;99970.36;107502;1254;108326;-65
2024/03/24 00:50:27;;;;;;;16.90;10.70;;;;;;;6.88;63.24;99970.70;107546;1252;106466;-65
2024/03/24 00:52:55;;;;;;;14.40;10.00;;;;;;;6.85;63.41;99963.77;107614;1251;99342;-66
2024/03/24 00:55:23;;;;;;;18.50;11.10;;;;;;;6.84;63.62;99962.84;107568;1254;99809;-65
2024/03/24 00:57:51;;;;;;;18.40;10.70;;;;;;;6.80;63.87;99960.67;107566;1254;113033;-66
2024/03/24 01:00:19;;;;;;;22.50;11.00;;;;;;;6.77;64.01;99961.44;107600;1254;107812;-65
2024/03/24 01:02:51;;;;;;;17.40;10.50;;;;;;;6.76;64.57;99959.08;107528;1252;107782;-66
2024/03/24 01:05:19;;;;;;;24.80;10.80;;;;;;;6.70;64.45;99946.52;107604;1251;99270;-65
2024/03/24 01:07:49;;;;;;;20.00;11.40;;;;;;;6.66;64.65;99947.09;107581;1251;99169;-65
2024/03/24 01:10:17;;;;;;;18.30;10.20;;;;;;;6.64;64.75;99942.27;107539;1254;113188;-64
2024/03/24 01:12:49;;;;;;;19.20;10.70;;;;;;;6.63;64.73;99944.84;107606;1253;107811;-65
2024/03/24 01:15:18;;;;;;;23.00;10.90;;;;;;;6.62;64.75;99941.70;107573;1255;108630;-65
2024/03/24 01:17:46;;;;;;;19.70;11.30;;;;;;;6.61;64.82;99940.21;107565;1251;99189;-65
2024/03/24 01:20:15;;;;;;;18.20;11.20;;;;;;;6.59;64.54;99940.38;107589;1253;99290;-64
2024/03/24 01:22:45;;;;;;;19.40;11.20;;;;;;;6.56;64.96;99943.62;107581;1254;112585;-65
2024/03/24 01:25:14;;;;;;;23.90;10.30;;;;;;;6.54;64.93;99942.38;107596;1254;109602;-66
2024/03/24 01:27:43;;;;;;;20.10;11.20;;;;;;;6.55;64.88;99945.15;107593;1252;108179;-65
2024/03/24 01:30:12;;;;;;;19.60;9.60;;;;;;;6.54;64.88;99944.73;107541;1254;99298;-66
2024/03/24 01:32:40;;;;;;;17.80;10.40;;;;;;;6.52;65.00;99941.64;107613;1251;99697;-68
2024/03/24 01:35:09;;;;;;;28.10;11.90;;;;;;;6.52;65.06;99940.27;107601;1254;113207;-65
2024/03/24 01:37:37;;;;;;;17.50;10.30;;;;;;;6.51;65.21;99933.35;107585;1252;108183;-66
2024/03/24 01:40:06;;;;;;;15.60;10.30;;;;;;;6.49;65.18;99940.82;107529;1254;107796;-65
2024/03/24 01:42:34;;;;;;;19.20;9.90;;;;;;;6.48;65.28;99938.98;107598;1253;99083;-65
2024/03/24 01:45:03;;;;;;;21.10;10.60;;;;;;;6.48;65.28;99937.38;107623;1252;99067;-65
2024/03/24 01:47:34;;;;;;;27.50;10.70;;;;;;;6.48;65.36;99932.20;107605;1254;112041;-65
2024/03/24 01:50:04;;;;;;;23.50;9.80;;;;;;;6.49;65.52;99928.41;107562;1253;107929;-65
2024/03/24 01:52:32;;;;;;;21.00;12.10;;;;;;;6.50;65.57;99928.64;107544;1251;108808;-65
2024/03/24 01:55:01;;;;;;;20.60;11.50;;;;;;;6.50;65.45;99929.71;107525;1251;99183;-64
2024/03/24 01:57:33;;;;;;;21.90;10.50;;;;;;;6.49;65.39;99928.05;107527;1252;99821;-64
2024/03/24 02:00:01;;;;;;;28.60;10.60;;;;;;;6.46;65.50;99928.64;107619;1254;113581;-66
2024/03/24 02:02:39;;;;;;;15.90;9.90;;;;;;;6.43;65.54;99927.48;107542;1254;107978;-66
2024/03/24 02:05:07;;;;;;;16.20;10.20;;;;;;;6.41;65.62;99931.23;107523;1253;108700;-64
2024/03/24 02:07:36;;;;;;;20.70;9.50;;;;;;;6.40;65.72;99927.38;107593;1254;99270;-64
2024/03/24 02:10:05;;;;;;;17.40;10.40;;;;;;;6.40;65.58;99925.75;107557;1252;97579;-65
2024/03/24 02:12:33;;;;;;;16.10;10.30;;;;;;;6.40;65.82;99922.87;107576;1253;113391;-65
2024/03/24 02:15:01;;;;;;;16.10;9.60;;;;;;;6.42;65.98;99924.17;107408;1254;108353;-66
2024/03/24 02:17:29;;;;;;;25.50;10.10;;;;;;;6.44;65.90;99917.39;107535;1252;107300;-65
2024/03/24 02:19:57;;;;;;;25.40;10.00;;;;;;;6.46;65.81;99915.64;107536;1254;99207;-64
2024/03/24 02:22:25;;;;;;;17.40;9.40;;;;;;;6.44;65.73;99910.84;107536;1254;99080;-64
2024/03/24 02:24:53;;;;;;;22.20;10.70;;;;;;;6.43;65.91;99911.08;107572;1252;113058;-64
2024/03/24 02:27:21;;;;;;;21.70;10.00;;;;;;;6.43;65.87;99910.01;107563;1254;108414;-64
2024/03/24 02:29:49;;;;;;;22.70;10.40;;;;;;;6.42;65.88;99904.02;107503;1252;107668;-64
2024/03/24 02:32:18;;;;;;;20.40;9.50;;;;;;;6.41;66.03;99903.95;107527;1253;99067;-65
2024/03/24 02:34:46;;;;;;;21.50;11.10;;;;;;;6.40;66.19;99900.80;107520;1254;99211;-64
2024/03/24 02:37:14;;;;;;;23.60;11.10;;;;;;;6.38;66.19;99896.67;107517;1254;113204;-63
2024/03/24 02:39:43;;;;;;;17.20;10.40;;;;;;;6.39;66.25;99897.64;107555;1253;108322;-63
2024/03/24 02:42:11;;;;;;;18.30;10.30;;;;;;;6.41;66.25;99898.96;107504;1254;108087;-63
2024/03/24 02:44:43;;;;;;;16.00;10.20;;;;;;;6.42;66.09;99895.63;107385;1258;99135;-63
2024/03/24 02:47:11;;;;;;;25.40;11.60;;;;;;;6.45;66.26;99895.26;107565;1253;99097;-64
2024/03/24 02:49:40;;;;;;;51.80;12.50;;;;;;;6.46;66.36;99891.78;107545;1255;112778;-65
2024/03/24 02:52:08;;;;;;;67.50;13.20;;;;;;;6.48;66.38;99888.77;107576;1251;107474;-65
2024/03/24 02:54:36;;;;;;;38.50;12.60;;;;;;;6.48;66.53;99888.95;107582;1254;107101;-65
2024/03/24 02:57:05;;;;;;;28.00;11.60;;;;;;;6.48;66.47;99890.20;107559;1253;99153;-64
2024/03/24 02:59:33;;;;;;;23.70;11.50;;;;;;;6.46;66.58;99893.04;107596;1253;99726;-65
2024/03/24 03:02:02;;;;;;;16.80;10.30;;;;;;;6.47;66.33;99894.92;107586;1253;113303;-66
2024/03/24 03:04:31;;;;;;;18.30;9.80;;;;;;;6.46;66.50;99893.02;107626;1254;107723;-65
2024/03/24 03:06:59;;;;;;;21.70;11.40;;;;;;;6.45;66.55;99894.55;107581;1251;108831;-64
2024/03/24 03:09:27;;;;;;;16.30;9.90;;;;;;;6.44;66.56;99889.11;107495;1251;99256;-64
2024/03/24 03:11:56;;;;;;;22.60;10.70;;;;;;;6.43;66.57;99889.91;107611;1254;99691;-64
2024/03/24 03:14:24;;;;;;;18.00;11.00;;;;;;;6.41;66.73;99885.61;107527;1254;113735;-65
2024/03/24 03:16:53;;;;;;;19.70;10.90;;;;;;;6.39;66.85;99889.33;107572;1250;108363;-65
2024/03/24 03:19:21;;;;;;;20.50;11.30;;;;;;;6.35;66.77;99890.77;107561;1251;107582;-65
2024/03/24 03:21:49;;;;;;;15.80;11.10;;;;;;;6.32;66.68;99888.17;107584;1251;99194;-65
2024/03/24 03:24:18;;;;;;;16.30;11.10;;;;;;;6.31;66.91;99889.30;107595;1251;99064;-65
2024/03/24 03:26:47;;;;;;;16.40;11.20;;;;;;;6.29;66.77;99890.40;107519;1252;112279;-65
2024/03/24 03:29:15;;;;;;;21.00;11.70;;;;;;;6.25;67.26;99886.23;107561;1255;109372;-64
2024/03/24 03:31:43;;;;;;;18.70;11.50;;;;;;;6.20;67.08;99880.39;107586;1254;109456;-64
2024/03/24 03:34:12;;;;;;;19.30;11.50;;;;;;;6.21;67.30;99878.56;107543;1254;99281;-64
2024/03/24 03:36:40;;;;;;;22.10;12.50;;;;;;;6.21;67.41;99879.45;107570;1253;99172;-65
2024/03/24 03:39:08;;;;;;;17.80;11.40;;;;;;;6.19;67.66;99885.64;107574;1254;113750;-64
2024/03/24 03:41:37;;;;;;;26.00;11.90;;;;;;;6.17;67.82;99881.77;107605;1253;107667;-64
2024/03/24 03:44:06;;;;;;;24.20;11.10;;;;;;;6.17;67.66;99888.18;107577;1255;107531;-65
2024/03/24 03:46:34;;;;;;;28.20;12.20;;;;;;;6.18;67.93;99888.78;107543;1253;99359;-64
2024/03/24 03:49:02;;;;;;;22.50;12.80;;;;;;;6.19;67.64;99885.10;107633;1255;99193;-64
2024/03/24 03:51:37;;;;;;;22.70;12.10;;;;;;;6.20;67.92;99888.96;107582;1254;112742;-64
2024/03/24 03:54:06;;;;;;;17.90;12.00;;;;;;;6.18;68.10;99894.96;107571;1251;109560;-64
2024/03/24 03:56:35;;;;;;;20.00;12.10;;;;;;;6.16;68.05;99899.78;107585;1251;108332;-65
2024/03/24 03:59:03;;;;;;;19.20;12.40;;;;;;;6.17;67.85;99897.57;107575;1254;99262;-64
2024/03/24 04:01:32;;;;;;;24.40;12.20;;;;;;;6.20;67.96;99902.14;107646;1253;99739;-65
2024/03/24 04:04:00;;;;;;;27.50;12.90;;;;;;;6.20;68.15;99908.19;107599;1254;113616;-65
2024/03/24 04:06:29;;;;;;;17.50;11.20;;;;;;;6.19;68.11;99914.88;107626;1251;109840;-65
2024/03/24 04:08:57;;;;;;;21.90;12.50;;;;;;;6.17;68.49;99919.16;107572;1251;109432;-66
2024/03/24 04:11:25;;;;;;;18.00;12.10;;;;;;;6.14;68.22;99912.62;107553;1251;99274;-65
2024/03/24 04:13:54;;;;;;;22.40;12.00;;;;;;;6.14;68.57;99908.39;107585;1255;99191;-65
2024/03/24 04:16:22;;;;;;;19.50;12.30;;;;;;;6.12;68.47;99906.54;107585;1254;113258;-65
2024/03/24 04:18:50;;;;;;;17.50;12.00;;;;;;;6.14;68.62;99911.34;107596;1254;109058;-64
2024/03/24 04:21:19;;;;;;;20.40;11.60;;;;;;;6.16;68.59;99912.98;107557;1255;108244;-64
2024/03/24 04:23:47;;;;;;;20.80;12.40;;;;;;;6.19;68.72;99915.55;107559;1254;99855;-65
2024/03/24 04:26:15;;;;;;;21.70;12.30;;;;;;;6.23;69.03;99920.78;107566;1251;99302;-64
2024/03/24 04:28:45;;;;;;;19.40;11.40;;;;;;;6.25;68.83;99914.55;107556;1254;114337;-65
2024/03/24 04:31:13;;;;;;;24.10;12.30;;;;;;;6.30;68.82;99910.02;107617;1254;108805;-64
2024/03/24 04:33:42;;;;;;;23.20;11.80;;;;;;;6.34;68.79;99908.09;107526;1255;108187;-64
2024/03/24 04:36:10;;;;;;;18.50;11.80;;;;;;;6.38;68.96;99902.27;107539;1254;99256;-64
2024/03/24 04:38:40;;;;;;;23.50;12.60;;;;;;;6.43;68.81;99900.95;107606;1254;99697;-67
2024/03/24 04:41:09;;;;;;;27.20;12.70;;;;;;;6.47;68.85;99900.02;107601;1253;113176;-65
2024/03/24 04:43:40;;;;;;;22.30;12.70;;;;;;;6.50;68.96;99900.35;107533;1254;108191;-65
2024/03/24 04:46:09;;;;;;;25.00;13.20;;;;;;;6.54;69.08;99910.30;107574;1253;108099;-67
2024/03/24 04:48:37;;;;;;;20.50;11.60;;;;;;;6.59;69.12;99907.79;107566;1253;99184;-64
2024/03/24 04:51:05;;;;;;;21.10;12.60;;;;;;;6.64;68.98;99904.31;107596;1251;99730;-63
2024/03/24 04:53:34;;;;;;;20.50;12.40;;;;;;;6.69;68.99;99902.43;107603;1251;113268;-64
2024/03/24 04:56:03;;;;;;;26.90;13.00;;;;;;;6.75;68.95;99909.44;107582;1251;108326;-64
2024/03/24 04:58:32;;;;;;;24.30;13.10;;;;;;;6.80;68.82;99903.80;107561;1251;108632;-64
2024/03/24 05:01:00;;;;;;;20.90;12.10;;;;;;;6.86;69.05;99909.73;107576;1251;99276;-65
2024/03/24 05:03:29;;;;;;;20.70;12.40;;;;;;;6.89;68.83;99914.48;107626;1251;99179;-65
2024/03/24 05:05:57;;;;;;;31.00;12.40;;;;;;;6.94;68.81;99914.06;107562;1251;113098;-66
2024/03/24 05:08:25;;;;;;;25.20;12.80;;;;;;;6.99;68.91;99916.30;107578;1254;107251;-66
2024/03/24 05:10:54;;;;;;;24.50;12.70;;;;;;;7.04;68.75;99914.45;107518;1254;108697;-66
2024/03/24 05:13:23;;;;;;;22.50;13.30;;;;;;;7.08;68.84;99917.16;107585;1251;99172;-66
2024/03/24 05:15:51;;;;;;;18.10;11.90;;;;;;;7.12;68.85;99920.71;107611;1251;99172;-66
2024/03/24 05:18:19;;;;;;;22.60;13.00;;;;;;;7.15;68.63;99920.59;107577;1251;112870;-66
2024/03/24 05:20:47;;;;;;;26.40;13.80;;;;;;;7.19;68.75;99920.38;107588;1254;108309;-66
2024/03/24 05:23:18;;;;;;;19.90;12.30;;;;;;;7.27;69.05;99919.42;107583;1251;108153;-65
2024/03/24 05:25:52;;;;;;;28.40;13.60;;;;;;;7.31;68.92;99927.52;107557;1256;99189;-65
2024/03/24 05:28:21;;;;;;;;;;;;;;;7.35;68.86;99925.21;107632;1254;99185;-65
2024/03/24 05:30:52;;;;;;;24.40;13.10;;;;;;;7.38;68.60;99925.40;107550;1254;111685;-65
2024/03/24 05:33:20;;;;;;;23.10;11.60;;;;;;;7.42;68.50;99926.29;107611;1254;107473;-65
2024/03/24 05:35:58;;;;;;;22.30;11.90;;;;;;;7.45;68.44;99926.73;107572;1253;107005;-64
2024/03/24 05:38:26;;;;;;;23.10;12.00;;;;;;;7.46;68.43;99927.14;107576;1254;99227;-64
2024/03/24 05:41:07;;;;;;;24.00;13.60;;;;;;;7.49;68.20;99923.98;107567;1254;99144;-64
2024/03/24 05:43:35;;;;;;;22.10;13.60;;;;;;;7.56;68.39;99923.92;107553;1254;112488;-64
2024/03/24 05:46:06;;;;;;;19.10;11.70;;;;;;;7.61;68.28;99924.08;107599;1254;106884;-64
2024/03/24 05:48:36;;;;;;;17.90;12.00;;;;;;;7.63;68.08;99926.70;107568;1254;107868;-64
2024/03/24 05:51:08;;;;;;;17.60;11.70;;;;;;;7.65;68.04;99925.61;107505;1254;99178;-65
2024/03/24 05:53:36;;;;;;;19.40;12.00;;;;;;;7.68;68.14;99928.23;107587;1254;99074;-65
2024/03/24 05:56:06;;;;;;;17.00;10.90;;;;;;;7.73;68.19;99925.33;107545;1254;112806;-65
2024/03/24 05:58:36;;;;;;;18.60;11.90;;;;;;;7.79;68.36;99929.73;107607;1256;107451;-65
2024/03/24 06:01:04;;;;;;;20.50;11.50;;;;;;;7.86;68.20;99937.10;107525;1254;107914;-65
2024/03/24 06:03:32;;;;;;;24.30;12.50;;;;;;;7.93;68.02;99942.23;107524;1253;99188;-66
2024/03/24 06:06:00;;;;;;;21.50;13.10;;;;;;;8.00;68.01;99945.15;107535;1256;99823;-66
2024/03/24 06:08:30;;;;;;;21.50;11.80;;;;;;;8.07;67.93;99938.27;107586;1253;112469;-66
2024/03/24 06:10:59;;;;;;;16.70;10.20;;;;;;;8.13;67.77;99934.46;107555;1253;107579;-65
2024/03/24 06:13:27;;;;;;;27.10;12.10;;;;;;;8.18;67.65;99935.00;107495;1254;108429;-65
2024/03/24 06:15:55;;;;;;;20.80;11.40;;;;;;;8.20;67.53;99932.69;107489;1252;99066;-65
2024/03/24 06:18:23;;;;;;;15.60;11.10;;;;;;;8.22;67.51;99933.70;107460;1254;99762;-65
2024/03/24 06:20:53;;;;;;;18.10;11.50;;;;;;;8.29;67.58;99932.89;107508;1254;113136;-67
2024/03/24 06:23:21;;;;;;;19.70;11.00;;;;;;;8.39;67.49;99936.94;107535;1253;107368;-65
2024/03/24 06:25:50;;;;;;;23.90;12.10;;;;;;;8.53;67.78;99944.29;107525;1256;107300;-64
2024/03/24 06:28:17;;;;;;;22.90;13.30;;;;;;;8.64;67.56;99940.05;107532;1255;99177;-64
2024/03/24 06:30:48;;;;;;;46.50;15.30;;;;;;;8.76;67.46;99938.90;107618;1254;99290;-64
2024/03/24 06:33:16;;;;;;;23.20;14.80;;;;;;;8.89;67.39;99936.27;107593;1252;113165;-63
2024/03/24 06:35:44;;;;;;;26.50;13.50;;;;;;;8.98;67.10;99933.63;107531;1254;107405;-66
2024/03/24 06:38:12;;;;;;;24.10;13.30;;;;;;;9.13;67.15;99933.08;107547;1254;108229;-65
2024/03/24 06:40:43;;;;;;;19.00;10.80;;;;;;;9.27;66.72;99926.38;107568;1252;99134;-65
2024/03/24 06:43:19;;;;;;;19.80;12.10;;;;;;;9.36;66.34;99925.58;107515;1254;99310;-65
2024/03/24 06:45:48;;;;;;;23.70;11.80;;;;;;;9.54;66.19;99920.42;107640;1256;112729;-65
2024/03/24 06:48:20;;;;;;;18.60;11.20;;;;;;;9.75;66.20;99921.80;107632;1254;108198;-66
2024/03/24 06:50:48;;;;;;;17.50;10.90;;;;;;;9.94;65.72;99922.78;107513;1254;107397;-65
2024/03/24 06:53:17;;;;;;;17.50;10.20;;;;;;;10.16;65.53;99921.45;107553;1251;100081;-64
2024/03/24 06:55:49;;;;;;;18.40;10.20;;;;;;;10.36;65.14;99915.31;107593;1251;99732;-65
2024/03/24 06:58:18;;;;;;;16.20;9.10;;;;;;;10.52;64.85;99911.31;107624;1251;112900;-64
2024/03/24 07:00:50;;;;;;;25.40;10.10;;;;;;;10.64;64.38;99904.70;107575;1251;108142;-64
2024/03/24 07:03:20;;;;;;;17.80;10.10;;;;;;;10.73;63.83;99901.23;107617;1255;108130;-65
2024/03/24 07:05:49;;;;;;;16.30;9.90;;;;;;;10.77;63.43;99899.20;107564;1251;99063;-66
2024/03/24 07:08:17;;;;;;;19.20;10.40;;;;;;;10.79;63.11;99900.26;107541;1255;99265;-66
2024/03/24 07:10:51;;;;;;;18.00;10.90;;;;;;;10.75;62.80;99894.05;107523;1254;112213;-67
2024/03/24 07:13:19;;;;;;;30.20;11.10;;;;;;;10.70;62.72;99892.17;107638;1254;107336;-66
2024/03/24 07:15:48;;;;;;;18.80;10.90;;;;;;;10.71;63.16;99882.59;107545;1256;107064;-66
2024/03/24 07:18:20;;;;;;;27.60;11.90;;;;;;;10.71;63.02;99870.92;107547;1254;99224;-66
2024/03/24 07:21:00;;;;;;;20.20;10.40;;;;;;;10.72;63.09;99862.21;107601;1256;99689;-66
2024/03/24 07:23:29;;;;;;;14.60;10.10;;;;;;;10.73;63.05;99856.02;107616;1254;112844;-65
2024/03/24 07:25:57;;;;;;;16.50;10.20;;;;;;;10.69;63.16;99850.91;107553;1254;107447;-64
2024/03/24 07:28:26;;;;;;;16.80;11.20;;;;;;;10.66;63.45;99836.90;107668;1254;108286;-66
2024/03/24 07:30:54;;;;;;;18.20;10.30;;;;;;;10.59;63.82;99831.83;107601;1254;99188;-66
2024/03/24 07:33:22;;;;;;;17.90;11.60;;;;;;;10.57;64.15;99825.58;107551;1254;99252;-69
2024/03/24 07:35:50;;;;;;;17.90;11.10;;;;;;;10.61;64.49;99814.55;107576;1254;112726;-66
2024/03/24 07:38:19;;;;;;;17.40;10.40;;;;;;;10.67;64.93;99811.28;107551;1254;109351;-66
2024/03/24 07:40:47;;;;;;;18.90;10.50;;;;;;;10.81;64.94;99813.98;107592;1254;108280;-64
2024/03/24 07:43:15;;;;;;;18.20;10.90;;;;;;;10.98;64.73;99811.63;107549;1254;99061;-65
2024/03/24 07:45:42;;;;;;;21.00;10.30;;;;;;;11.19;64.45;99810.70;107604;1254;99189;-65
2024/03/24 07:48:10;;;;;;;17.70;11.30;;;;;;;11.39;64.16;99799.25;107575;1253;113414;-64
2024/03/24 07:50:40;;;;;;;21.80;11.20;;;;;;;11.57;63.84;99801.20;107563;1254;108370;-65
2024/03/24 07:53:10;;;;;;;18.90;10.40;;;;;;;11.74;63.32;99803.54;107451;1252;107978;-66
2024/03/24 07:55:42;;;;;;;16.70;11.30;;;;;;;11.92;62.92;99804.26;107545;1253;99208;-65
2024/03/24 07:58:10;;;;;;;20.80;10.30;;;;;;;12.14;62.33;99811.24;107365;1254;254199;-65
2024/03/24 08:00:38;;;;;;;18.90;11.00;;;;;;;12.38;62.05;99817.77;107543;1253;112719;-66
2024/03/24 08:03:06;;;;;;;22.00;12.20;;;;;;;12.61;61.69;99812.91;107522;1254;107180;-65
2024/03/24 08:05:34;;;;;;;19.90;11.20;;;;;;;12.81;60.95;99803.92;107545;1254;107891;-64
2024/03/24 08:08:03;;;;;;;23.20;11.30;;;;;;;12.94;60.47;99805.40;107506;1254;99191;-66
2024/03/24 08:10:31;;;;;;;20.40;10.00;;;;;;;13.09;59.93;99797.95;107577;1254;100543;-66
2024/03/24 08:12:59;;;;;;;20.20;11.80;;;;;;;13.25;59.91;99802.56;107510;1254;112372;-65
2024/03/24 08:15:27;;;;;;;20.30;10.90;;;;;;;13.45;59.59;99803.31;107578;1254;107271;-65
2024/03/24 08:17:55;;;;;;;17.70;9.20;;;;;;;13.62;58.81;99798.31;107497;1254;108672;-67
2024/03/24 08:20:24;;;;;;;20.80;10.00;;;;;;;13.77;58.18;99799.79;107508;1256;99167;-66
2024/03/24 08:22:53;;;;;;;30.70;10.50;;;;;;;13.94;57.82;99799.98;107548;1253;99701;-65
2024/03/24 08:25:21;;;;;;;18.10;11.30;;;;;;;14.09;57.59;99794.41;107615;1254;112663;-65
2024/03/24 08:27:49;;;;;;;14.80;10.30;;;;;;;14.24;56.98;99792.15;107599;1255;108584;-65
2024/03/24 08:30:17;;;;;;;23.20;10.70;;;;;;;14.37;56.26;99783.96;107579;1254;108483;-66
2024/03/24 08:32:46;;;;;;;39.00;12.10;;;;;;;14.43;55.77;99782.29;107539;1254;99188;-65
2024/03/24 08:35:15;;;;;;;27.10;10.90;;;;;;;14.50;55.62;99785.79;107503;1254;99205;-70
2024/03/24 08:37:48;;;;;;;15.40;10.20;;;;;;;14.58;55.81;99778.48;107447;1254;112029;-69
2024/03/24 08:40:17;;;;;;;26.00;10.50;;;;;;;14.66;55.46;99770.55;107523;1254;108231;-68
2024/03/24 08:42:45;;;;;;;20.30;10.80;;;;;;;14.67;55.05;99772.02;107484;1254;107204;-68
2024/03/24 08:45:13;;;;;;;28.30;9.80;;;;;;;14.67;54.87;99770.97;107504;1254;99199;-69
2024/03/24 08:47:42;;;;;;;19.80;10.20;;;;;;;14.69;54.35;99766.14;107478;1254;99716;-69
2024/03/24 08:50:10;;;;;;;16.10;9.40;;;;;;;14.77;54.35;99771.98;107464;1256;113133;-69
2024/03/24 08:52:38;;;;;;;23.90;9.70;;;;;;;14.86;53.61;99770.02;107510;1254;108311;-68
2024/03/24 08:55:07;;;;;;;14.90;9.80;;;;;;;15.01;53.32;99773.13;107431;1254;108783;-69
2024/03/24 08:57:37;;;;;;;15.60;9.70;;;;;;;15.26;53.13;99770.95;107401;1254;99115;-68
2024/03/24 09:00:07;;;;;;;19.40;10.10;;;;;;;15.55;52.37;99755.60;107425;1253;99924;-69
2024/03/24 09:02:36;;;;;;;17.00;11.20;;;;;;;15.93;52.05;99751.54;107427;1254;112611;-70
2024/03/24 09:05:05;;;;;;;17.80;9.60;;;;;;;16.38;50.82;99744.58;107399;1254;107672;-66
2024/03/24 09:07:33;;;;;;;18.50;9.40;;;;;;;16.81;49.80;99743.39;107449;1254;106265;-66
2024/03/24 09:10:01;;;;;;;16.80;9.80;;;;;;;17.24;48.87;99731.60;107376;1256;99244;-70
2024/03/24 09:12:29;;;;;;;17.20;8.60;;;;;;;17.56;47.90;99717.30;107407;1254;99163;-69
2024/03/24 09:14:57;;;;;;;15.90;9.10;;;;;;;17.71;47.27;99707.30;107412;1254;113072;-69
2024/03/24 09:17:25;;;;;;;17.70;9.50;;;;;;;17.71;47.03;99714.42;107423;1254;106979;-69
2024/03/24 09:19:53;;;;;;;19.60;9.20;;;;;;;17.83;47.80;99724.59;107360;1256;107652;-68
2024/03/24 09:22:21;;;;;;;15.80;9.30;;;;;;;17.95;47.49;99733.48;107405;1254;99292;-64
2024/03/24 09:24:49;;;;;;;18.50;8.40;;;;;;;18.00;47.15;99740.58;107390;1254;99819;-65
2024/03/24 09:27:18;;;;;;;15.90;9.00;;;;;;;18.11;47.15;99738.55;107380;1254;113127;-69
2024/03/24 09:29:45;;;;;;;21.20;8.40;;;;;;;18.40;47.08;99738.95;107427;1254;108184;-65
2024/03/24 09:32:14;;;;;;;15.40;8.10;;;;;;;18.96;46.57;99730.84;107390;1254;108418;-65
2024/03/24 09:34:42;;;;;;;17.90;8.00;;;;;;;19.74;45.06;99724.36;107366;1256;99203;-65
2024/03/24 09:37:12;;;;;;;18.50;8.30;;;;;;;20.42;44.35;99716.05;107445;1254;99198;-65
2024/03/24 09:39:40;;;;;;;15.80;7.50;;;;;;;21.07;42.45;99709.80;107507;1256;113593;-65
2024/03/24 09:42:12;;;;;;;13.50;7.30;;;;;;;21.49;41.34;99710.60;107399;1254;107539;-65
2024/03/24 09:44:41;;;;;;;16.60;8.00;;;;;;;21.86;40.34;99715.70;107374;1256;108352;-67
2024/03/24 09:47:11;;;;;;;11.10;7.20;;;;;;;22.26;39.75;99707.30;107389;1253;99074;-66
2024/03/24 09:49:40;;;;;;;13.60;7.00;;;;;;;22.85;39.15;99701.00;107406;1256;99076;-65
2024/03/24 09:52:12;;;;;;;15.40;7.60;;;;;;;23.44;39.21;99697.29;107443;1256;113609;-65
2024/03/24 09:54:40;;;;;;;16.60;6.50;;;;;;;24.00;37.52;99693.85;107524;1257;109178;-65
2024/03/24 09:57:10;;;;;;;9.30;7.10;;;;;;;24.64;37.80;99691.71;107492;1255;108573;-65
2024/03/24 09:59:42;;;;;;;12.80;6.70;;;;;;;25.36;36.56;99689.59;107507;1254;99745;-65
2024/03/24 10:02:12;;;;;;;17.60;7.20;;;;;;;25.91;33.32;99690.55;107526;1250;99343;-66
2024/03/24 10:04:41;;;;;;;12.60;6.80;;;;;;;26.04;34.01;99687.40;107559;1253;112612;-64
2024/03/24 10:07:09;;;;;;;18.00;6.30;;;;;;;26.34;33.56;99685.48;107489;1255;108865;-66
2024/03/24 10:09:38;;;;;;;10.90;6.10;;;;;;;26.70;33.11;99690.34;107426;1251;108259;-64
2024/03/24 10:12:13;;;;;;;15.40;7.30;;;;;;;27.22;33.36;99693.98;107475;1257;99257;-65
2024/03/24 10:14:42;;;;;;;11.90;6.00;;;;;;;27.78;31.79;99683.48;107513;1257;100714;-66
2024/03/24 10:17:14;;;;;;;11.20;5.90;;;;;;;27.98;30.76;99680.30;107462;1255;113363;-65
2024/03/24 10:19:48;;;;;;;30.70;7.00;;;;;;;28.44;31.68;99681.25;107401;1255;108499;-65
2024/03/24 10:22:19;;;;;;;8.70;5.90;;;;;;;28.85;30.23;99678.28;107482;1251;107256;-65
2024/03/24 10:24:47;;;;;;;7.80;5.90;;;;;;;29.07;29.52;99678.75;107415;1251;99208;-65
2024/03/24 10:27:15;;;;;;;13.00;6.30;;;;;;;29.38;29.29;99675.68;107445;1251;99201;-65
2024/03/24 10:29:43;;;;;;;12.40;5.90;;;;;;;29.70;29.23;99672.92;107518;1262;113009;-66
2024/03/24 10:32:11;;;;;;;7.70;5.10;;;;;;;30.14;27.90;99676.73;107431;1254;106264;-65
2024/03/24 10:34:55;;;;;;;14.40;5.40;;;;;;;30.60;27.74;99674.10;107391;1250;108653;-65
2024/03/24 10:37:25;;;;;;;10.10;5.20;;;;;;;31.20;26.96;99678.07;107428;1251;99299;-65
2024/03/24 10:39:54;;;;;;;12.10;4.30;;;;;;;31.63;25.38;99667.66;107433;1251;99064;-65
2024/03/24 10:42:22;;;;;;;11.60;3.60;;;;;;;31.81;24.05;99666.54;107438;1251;112079;-66
2024/03/24 10:44:54;;;;;;;14.70;4.20;;;;;;;31.92;22.68;99665.45;107375;1257;108576;-65
2024/03/24 10:47:22;;;;;;;6.40;3.50;;;;;;;32.04;21.50;99655.26;107486;1257;108146;-65
2024/03/24 10:49:50;;;;;;;17.50;4.40;;;;;;;31.46;21.02;99650.94;107496;1255;99179;-64
2024/03/24 10:52:19;;;;;;;14.00;4.00;;;;;;;31.15;21.11;99647.92;107524;1255;99728;-65
2024/03/24 10:54:50;;;;;;;9.30;3.60;;;;;;;30.84;21.96;99641.23;107469;1256;113081;-65
2024/03/24 10:57:19;;;;;;;5.70;3.80;;;;;;;31.08;20.96;99638.42;107476;1251;107423;-65
2024/03/24 10:59:49;;;;;;;7.60;3.60;;;;;;;31.07;21.80;99625.15;107509;1251;107782;-65
2024/03/24 11:02:20;;;;;;;9.70;3.70;;;;;;;31.37;21.68;99620.36;107472;1251;99811;-65
2024/03/24 11:04:50;;;;;;;6.40;3.60;;;;;;;31.73;21.78;99605.71;107438;1251;99716;-65
2024/03/24 11:07:19;;;;;;;6.80;3.40;;;;;;;32.15;21.21;99595.77;107423;1255;112311;-66
2024/03/24 11:09:47;;;;;;;7.90;3.60;;;;;;;32.02;19.86;99594.66;107443;1251;108496;-64
2024/03/24 11:12:15;;;;;;;4.60;3.00;;;;;;;31.81;20.92;99587.23;107440;1254;108281;-65
2024/03/24 11:14:49;;;;;;;5.40;3.40;;;;;;;31.13;21.25;99584.06;107507;1251;99230;-65
2024/03/24 11:17:18;;;;;;;6.00;3.60;;;;;;;30.20;21.79;99579.91;107569;1251;99067;-65
2024/03/24 11:19:50;;;;;;;7.70;3.60;;;;;;;29.28;22.47;99572.65;107572;1253;113222;-65